Cornwall, New York
Current Conditions -  °F | °C
As of 1:45 AM on Saturday 20 Dec 2014 (Local Time) from KSWF Reporting Station
Overcast Overcast  
Wind Chill: 22°   Ceiling: 2500
Heat Index: 28°   Visibility: 10mi
Dew Point: 23°   Wind: 6mph
Humidity: 80%   Direction: NA
Pressure: 30.19"   Gusts: NA
Location:  41.43°N, 74.04°W
Report Text: KSWF 200645Z VRB05KT 10SM OVC025 M02/M05 A3019
Loading
Personal Weather Stations






























Interactive Weather Map New forecast layout! Learn more

10-Day Weather Forecast

Advertisements
Track Severe Weather on mobile